createdAt,value
2022-11-29T00:01:04.829Z,97754.78
2022-11-29T00:02:36.614Z,97758.50
2022-11-29T00:04:08.726Z,97757.97
2022-11-29T00:05:40.348Z,97758.09
2022-11-29T00:07:11.949Z,97759.88
2022-11-29T00:08:44.073Z,97756.31
2022-11-29T00:10:15.831Z,97760.84
2022-11-29T00:12:06.358Z,97755.50
2022-11-29T00:13:38.321Z,97754.66
2022-11-29T00:15:10.040Z,97754.16
2022-11-29T00:16:42.361Z,97750.88
2022-11-29T00:18:13.985Z,97752.50
2022-11-29T00:19:45.761Z,97756.06
2022-11-29T00:21:17.507Z,97754.28
2022-11-29T00:22:49.550Z,97751.69
2022-11-29T00:24:21.347Z,97751.81
2022-11-29T00:25:53.208Z,97754.16
2022-11-29T00:27:24.861Z,97749.91
2022-11-29T00:28:56.454Z,97750.88
2022-11-29T00:30:28.170Z,97753.75
2022-11-29T00:31:59.844Z,97751.00
2022-11-29T00:33:31.456Z,97759.63
2022-11-29T00:35:09.351Z,97753.47
2022-11-29T00:36:41.812Z,97753.34
2022-11-29T00:38:13.455Z,97750.59
2022-11-29T00:39:45.082Z,97748.00
2022-11-29T00:41:16.678Z,97749.47
2022-11-29T00:42:48.231Z,97749.59
2022-11-29T00:44:20.898Z,97750.41
2022-11-29T00:45:52.789Z,97748.00
2022-11-29T00:47:24.442Z,97751.56
2022-11-29T00:48:55.999Z,97752.50
2022-11-29T00:50:27.586Z,97749.09
2022-11-29T00:52:02.171Z,97752.38
2022-11-29T00:53:35.456Z,97753.34
2022-11-29T00:55:07.676Z,97755.94
2022-11-29T00:56:39.229Z,97755.94
2022-11-29T00:58:11.209Z,97747.44
2022-11-29T00:59:42.833Z,97758.81
2022-11-29T01:01:14.771Z,97757.84
2022-11-29T01:02:46.546Z,97751.69
2022-11-29T01:04:18.123Z,97754.28
2022-11-29T01:05:50.138Z,97759.50
2022-11-29T01:07:21.812Z,97758.66
2022-11-29T01:08:53.981Z,97758.00
2022-11-29T01:10:25.927Z,97749.34
2022-11-29T01:11:57.500Z,97752.13
2022-11-29T01:13:29.080Z,97754.72
2022-11-29T01:15:00.667Z,97759.13
2022-11-29T01:16:32.976Z,97764.31
2022-11-29T01:18:04.718Z,97764.16
2022-11-29T01:19:37.983Z,97760.91
2022-11-29T01:21:13.349Z,97761.03
2022-11-29T01:22:45.697Z,97767.06
2022-11-29T01:24:17.269Z,97762.69
2022-11-29T01:26:03.695Z,97768.16
2022-11-29T01:27:35.548Z,97764.72
2022-11-29T01:29:07.934Z,97765.69
2022-11-29T01:30:39.535Z,97761.63
2022-11-29T01:32:12.472Z,97764.50
2022-11-29T01:33:44.124Z,97762.72
2022-11-29T01:35:15.795Z,97759.41
2022-11-29T01:36:47.377Z,97764.34
2022-11-29T01:38:19.528Z,97763.81
2022-11-29T01:39:51.161Z,97763.25
2022-11-29T01:41:25.634Z,97761.63
2022-11-29T01:42:57.189Z,97764.22
2022-11-29T01:44:29.143Z,97763.66
2022-11-29T01:46:00.798Z,97764.25
2022-11-29T01:47:33.454Z,97760.00
2022-11-29T01:49:10.308Z,97765.50
2022-11-29T01:50:42.698Z,97759.34
2022-11-29T01:52:28.431Z,97764.81
2022-11-29T01:54:00.195Z,97772.47
2022-11-29T01:55:33.121Z,97759.47
2022-11-29T01:57:07.470Z,97759.47
2022-11-29T01:58:39.367Z,97756.88
2022-11-29T02:00:17.125Z,97759.47
2022-11-29T02:01:48.911Z,97760.44
2022-11-29T02:03:20.522Z,97756.75
2022-11-29T02:04:52.408Z,97762.72
2022-11-29T02:06:24.245Z,97762.72
2022-11-29T02:07:59.187Z,97762.06
2022-11-29T02:09:31.048Z,97760.72
2022-11-29T02:11:11.885Z,97758.66
2022-11-29T02:12:50.652Z,97753.44
2022-11-29T02:14:49.662Z,97752.50
2022-11-29T02:16:29.306Z,97758.34
2022-11-29T02:18:12.071Z,97756.56
2022-11-29T02:20:01.841Z,97756.75
2022-11-29T02:21:41.379Z,97756.56
2022-11-29T02:23:28.233Z,97758.34
2022-11-29T02:25:24.687Z,97760.94
2022-11-29T02:27:13.766Z,97760.28
2022-11-29T02:28:57.833Z,97757.00
2022-11-29T02:30:44.696Z,97764.69
2022-11-29T02:32:53.292Z,97759.47
2022-11-29T02:34:32.903Z,97764.00
2022-11-29T02:36:07.425Z,97760.94
2022-11-29T02:38:17.298Z,97765.63
2022-11-29T02:40:16.937Z,97760.00
2022-11-29T02:42:09.593Z,97762.72
2022-11-29T02:44:05.423Z,97761.25
2022-11-29T02:46:02.175Z,97763.03
2022-11-29T02:47:45.936Z,97770.97
2022-11-29T02:49:27.745Z,97769.31
2022-11-29T02:51:05.818Z,97765.78
2022-11-29T02:53:14.071Z,97767.94
2022-11-29T02:55:06.908Z,97770.41
2022-11-29T02:57:02.659Z,97775.75
2022-11-29T02:58:45.486Z,97769.56
2022-11-29T03:00:20.241Z,97778.06
2022-11-29T03:02:13.957Z,97772.19
2022-11-29T03:03:56.746Z,97768.94
2022-11-29T03:06:07.989Z,97764.69
2022-11-29T03:07:49.125Z,97771.53
2022-11-29T03:09:43.540Z,97770.41
2022-11-29T03:11:30.022Z,97772.03
2022-11-29T03:13:07.487Z,97770.25
2022-11-29T03:15:04.472Z,97777.09
2022-11-29T03:16:54.283Z,97770.25
2022-11-29T03:18:55.997Z,97776.44
2022-11-29T03:20:36.478Z,97774.66
2022-11-29T03:22:26.373Z,97781.63
2022-11-29T03:24:04.874Z,97774.66
2022-11-29T03:25:53.490Z,97778.06
2022-11-29T03:27:35.122Z,97770.41
2022-11-29T03:29:15.620Z,97780.66
2022-11-29T03:30:56.758Z,97780.81
2022-11-29T03:32:41.079Z,97781.63
2022-11-29T03:34:15.464Z,97778.34
2022-11-29T03:35:57.254Z,97782.44
2022-11-29T03:37:50.167Z,97779.03
2022-11-29T03:39:33.362Z,97775.47
2022-11-29T03:41:05.082Z,97786.69
2022-11-29T03:42:55.198Z,97788.34
2022-11-29T03:44:59.400Z,97781.34
2022-11-29T03:46:40.641Z,97787.22
2022-11-29T03:48:18.701Z,97787.22
2022-11-29T03:49:53.420Z,97787.22
2022-11-29T03:51:49.354Z,97789.97
2022-11-29T03:53:34.112Z,97795.19
2022-11-29T03:55:08.600Z,97789.03
2022-11-29T03:56:40.888Z,97786.56
2022-11-29T03:58:33.758Z,97790.81
2022-11-29T04:00:10.132Z,97789.97
2022-11-29T04:02:03.954Z,97790.94
2022-11-29T04:03:47.346Z,97793.53
2022-11-29T04:05:54.413Z,97789.81
2022-11-29T04:07:47.640Z,97787.38
2022-11-29T04:09:34.916Z,97793.69
2022-11-29T04:11:25.323Z,97785.34
2022-11-29T04:13:15.577Z,97791.06
2022-11-29T04:14:59.297Z,97794.22
2022-11-29T04:17:00.426Z,97793.41
2022-11-29T04:18:38.153Z,97793.41
2022-11-29T04:20:28.448Z,97799.25
2022-11-29T04:22:15.035Z,97798.31
2022-11-29T04:24:13.812Z,97805.28
2022-11-29T04:26:19.207Z,97807.22
2022-11-29T04:28:05.360Z,97812.44
2022-11-29T04:30:07.690Z,97806.25
2022-11-29T04:31:57.230Z,97810.34
2022-11-29T04:33:52.837Z,97806.94
2022-11-29T04:35:33.405Z,97814.72
2022-11-29T04:37:14.739Z,97818.16
2022-11-29T04:39:04.482Z,97822.94
2022-11-29T04:41:10.415Z,97814.28
2022-11-29T04:42:57.546Z,97819.09
2022-11-29T04:44:38.174Z,97814.97
2022-11-29T04:46:39.667Z,97818.28
2022-11-29T04:48:22.986Z,97824.44
2022-11-29T04:50:23.686Z,97820.06
2022-11-29T04:52:32.636Z,97824.56
2022-11-29T04:54:20.738Z,97825.41
2022-11-29T04:56:10.489Z,97830.59
2022-11-29T04:57:53.376Z,97826.34
2022-11-29T04:59:48.377Z,97819.78
2022-11-29T05:01:26.023Z,97826.75
2022-11-29T05:03:00.155Z,97827.72
2022-11-29T05:04:53.293Z,97828.00
2022-11-29T05:06:43.139Z,97833.31
2022-11-29T05:08:38.593Z,97832.78
2022-11-29T05:10:35.447Z,97838.25
2022-11-29T05:12:33.086Z,97840.19
2022-11-29T05:14:27.366Z,97836.75
2022-11-29T05:16:03.038Z,97830.72
2022-11-29T05:17:46.645Z,97834.16
2022-11-29T05:19:27.491Z,97834.97
2022-11-29T05:21:09.773Z,97843.34
2022-11-29T05:22:59.765Z,97839.09
2022-11-29T05:24:53.186Z,97843.47
2022-11-29T05:26:38.286Z,97837.44
2022-11-29T05:28:20.907Z,97845.81
2022-11-29T05:30:06.500Z,97840.72
2022-11-29T05:31:50.643Z,97836.63
2022-11-29T05:33:46.933Z,97840.03
2022-11-29T05:35:42.600Z,97843.34
2022-11-29T05:37:45.006Z,97839.22
2022-11-29T05:39:57.850Z,97840.72
2022-11-29T05:42:03.195Z,97838.66
2022-11-29T05:43:40.549Z,97848.09
2022-11-29T05:45:44.295Z,97840.44
2022-11-29T05:47:31.037Z,97850.69
2022-11-29T05:49:13.007Z,97847.41
2022-11-29T05:51:05.088Z,97847.56
2022-11-29T05:53:21.191Z,97850.31
2022-11-29T05:55:14.183Z,97846.47
2022-11-29T05:57:13.930Z,97853.25
2022-11-29T05:58:52.904Z,97854.00
2022-11-29T06:00:29.710Z,97857.56
2022-11-29T06:02:48.251Z,97850.13
2022-11-29T06:04:32.189Z,97853.84
2022-11-29T06:06:14.306Z,97852.22
2022-11-29T06:08:03.787Z,97853.56
2022-11-29T06:09:47.394Z,97859.88
2022-11-29T06:11:27.312Z,97860.03
2022-11-29T06:13:09.548Z,97860.53
2022-11-29T06:15:02.923Z,97859.88
2022-11-29T06:16:59.069Z,97862.09
2022-11-29T06:18:42.970Z,97866.72
2022-11-29T06:20:23.806Z,97861.22
2022-11-29T06:22:16.873Z,97868.34
2022-11-29T06:23:57.454Z,97866.88
2022-11-29T06:25:51.062Z,97874.00
2022-11-29T06:27:35.348Z,97873.03
2022-11-29T06:29:40.090Z,97876.59
2022-11-29T06:31:11.710Z,97870.56
2022-11-29T06:32:46.347Z,97881.78
2022-11-29T06:34:54.479Z,97885.22
2022-11-29T06:36:34.539Z,97887.81
2022-11-29T06:38:18.111Z,97887.97
2022-11-29T06:39:50.278Z,97887.69
2022-11-29T06:41:23.819Z,97894.81
2022-11-29T06:42:55.588Z,97893.84
2022-11-29T06:44:27.594Z,97894.25
2022-11-29T06:46:10.113Z,97893.59
2022-11-29T06:48:14.047Z,97890.31
2022-11-29T06:49:56.236Z,97893.44
2022-11-29T06:51:30.465Z,97895.25
2022-11-29T06:53:50.082Z,97897.97
2022-11-29T06:55:27.262Z,97899.75
2022-11-29T06:57:17.129Z,97902.06
2022-11-29T06:59:04.154Z,97906.03
2022-11-29T07:00:44.558Z,97911.63
2022-11-29T07:02:40.468Z,97904.13
2022-11-29T07:04:16.736Z,97907.81
2022-11-29T07:05:48.641Z,97904.25
2022-11-29T07:07:22.509Z,97910.16
2022-11-29T07:09:00.698Z,97913.53
2022-11-29T07:10:34.731Z,97915.50
2022-11-29T07:12:06.677Z,97913.72
2022-11-29T07:13:38.672Z,97909.75
2022-11-29T07:15:21.930Z,97914.94
2022-11-29T07:17:17.528Z,97916.16
2022-11-29T07:19:36.722Z,97919.06
2022-11-29T07:21:17.360Z,97912.88
2022-11-29T07:23:13.143Z,97917.56
2022-11-29T07:24:59.983Z,97914.94
2022-11-29T07:26:56.583Z,97922.47
2022-11-29T07:28:55.631Z,97934.94
2022-11-29T07:30:50.867Z,97926.41
2022-11-29T07:32:25.580Z,97923.59
2022-11-29T07:34:08.969Z,97925.06
2022-11-29T07:36:02.118Z,97933.56
2022-11-29T07:37:51.622Z,97933.28
2022-11-29T07:39:41.954Z,97935.31
2022-11-29T07:41:30.112Z,97930.13
2022-11-29T07:43:43.457Z,97934.94
2022-11-29T07:45:27.693Z,97934.38
2022-11-29T07:46:59.421Z,97933.69
2022-11-29T07:48:31.099Z,97932.09
2022-11-29T07:50:03.023Z,97933.69
2022-11-29T07:51:34.655Z,97937.53
2022-11-29T07:53:06.370Z,97936.84
2022-11-29T07:54:38.325Z,97941.09
2022-11-29T07:56:10.206Z,97941.66
2022-11-29T07:57:41.928Z,97941.75
2022-11-29T07:59:14.606Z,97939.56
2022-11-29T08:00:46.467Z,97944.22
2022-11-29T08:02:29.549Z,97944.78
2022-11-29T08:04:01.342Z,97946.44
2022-11-29T08:05:33.008Z,97945.47
2022-11-29T08:07:04.561Z,97947.41
2022-11-29T08:08:42.245Z,97951.50
2022-11-29T08:10:16.993Z,97948.63
2022-11-29T08:11:48.849Z,97945.34
2022-11-29T08:13:21.245Z,97951.06
2022-11-29T08:14:52.807Z,97959.44
2022-11-29T08:16:24.551Z,97960.78
2022-11-29T08:17:56.257Z,97954.91
2022-11-29T08:19:28.077Z,97958.19
2022-11-29T08:21:05.088Z,97957.50
2022-11-29T08:22:37.102Z,97963.41
2022-11-29T08:24:08.760Z,97961.06
2022-11-29T08:25:40.819Z,97968.72
2022-11-29T08:27:12.554Z,97962.31
2022-11-29T08:28:44.781Z,97961.06
2022-11-29T08:30:18.784Z,97964.47
2022-11-29T08:31:53.594Z,97968.84
2022-11-29T08:33:25.430Z,97968.16
2022-11-29T08:34:56.966Z,97970.63
2022-11-29T08:36:28.778Z,97978.75
2022-11-29T08:38:00.446Z,97967.78
2022-11-29T08:39:32.174Z,97968.88
2022-11-29T08:41:05.976Z,97968.59
2022-11-29T08:42:37.747Z,97975.19
2022-11-29T08:44:09.453Z,97969.31
2022-11-29T08:45:41.031Z,97969.84
2022-11-29T08:47:31.013Z,97972.84
2022-11-29T08:49:02.819Z,97977.75
2022-11-29T08:50:57.615Z,97979.81
2022-11-29T08:52:48.673Z,97979.13
2022-11-29T08:54:20.233Z,97981.59
2022-11-29T08:55:51.884Z,97978.88
2022-11-29T08:57:40.526Z,97977.88
2022-11-29T08:59:12.658Z,97977.22
2022-11-29T09:00:47.089Z,97983.91
2022-11-29T09:02:19.657Z,97990.75
2022-11-29T09:04:00.307Z,97984.06
2022-11-29T09:05:31.918Z,97982.69
2022-11-29T09:07:03.555Z,97986.38
2022-11-29T09:08:35.196Z,97982.81
2022-11-29T09:10:08.499Z,97986.75
2022-11-29T09:11:40.248Z,97995.38
2022-11-29T09:13:12.306Z,97992.41
2022-11-29T09:14:44.147Z,97994.19
2022-11-29T09:16:18.328Z,97999.91
2022-11-29T09:17:50.001Z,97999.63
2022-11-29T09:19:21.717Z,97992.91
2022-11-29T09:20:53.294Z,97997.72
2022-11-29T09:22:24.867Z,97997.31
2022-11-29T09:24:01.049Z,97995.81
2022-11-29T09:25:32.647Z,97998.81
2022-11-29T09:27:04.552Z,98001.28
2022-11-29T09:28:36.556Z,98002.50
2022-11-29T09:30:08.887Z,98006.75
2022-11-29T09:31:41.131Z,98006.44
2022-11-29T09:33:12.854Z,98006.84
2022-11-29T09:34:44.763Z,98009.41
2022-11-29T09:36:16.706Z,98006.56
2022-11-29T09:37:48.376Z,98007.25
2022-11-29T09:39:20.299Z,98003.56
2022-11-29T09:41:03.473Z,98008.78
2022-11-29T09:42:35.201Z,98013.03
2022-11-29T09:44:44.550Z,98009.47
2022-11-29T09:46:22.306Z,98011.50
2022-11-29T09:48:15.332Z,98014.81
2022-11-29T09:50:19.910Z,98022.19
2022-11-29T09:52:16.306Z,98020.94
2022-11-29T09:53:53.762Z,98019.44
2022-11-29T09:55:37.494Z,98021.78
2022-11-29T09:57:11.029Z,98014.22
2022-11-29T09:58:57.918Z,98019.16
2022-11-29T10:00:32.579Z,98017.22
2022-11-29T10:02:21.105Z,98020.38
2022-11-29T10:03:57.302Z,98018.34
2022-11-29T10:05:38.706Z,98019.00
2022-11-29T10:07:30.254Z,98022.03
2022-11-29T10:09:08.220Z,98022.59
2022-11-29T10:10:46.926Z,98024.06
2022-11-29T10:12:21.889Z,98021.19
2022-11-29T10:14:03.218Z,98016.94
2022-11-29T10:15:41.125Z,98020.50
2022-11-29T10:17:12.692Z,98016.13
2022-11-29T10:18:50.214Z,98016.66
2022-11-29T10:20:24.323Z,98018.97
2022-11-29T10:22:02.676Z,98018.16
2022-11-29T10:23:41.461Z,98019.81
2022-11-29T10:25:22.960Z,98017.06
2022-11-29T10:26:55.038Z,98016.38
2022-11-29T10:28:32.292Z,98013.91
2022-11-29T10:30:06.397Z,98013.50
2022-11-29T10:31:43.333Z,98014.16
2022-11-29T10:33:29.695Z,98010.31
2022-11-29T10:35:01.599Z,98003.69
2022-11-29T10:36:47.328Z,98009.03
2022-11-29T10:38:34.252Z,98009.59
2022-11-29T10:40:14.946Z,98008.22
2022-11-29T10:41:51.916Z,98011.78
2022-11-29T10:43:25.944Z,98007.00
2022-11-29T10:44:59.123Z,98010.78
2022-11-29T10:46:34.906Z,98001.03
2022-11-29T10:48:08.067Z,98001.56
2022-11-29T10:49:40.327Z,98005.53
2022-11-29T10:51:17.534Z,97995.50
2022-11-29T10:52:49.230Z,98004.75
2022-11-29T10:54:32.647Z,98005.94
2022-11-29T10:56:12.923Z,98005.94
2022-11-29T10:58:28.455Z,98004.16
2022-11-29T11:00:04.616Z,98002.81
2022-11-29T11:01:42.296Z,98007.00
2022-11-29T11:03:36.046Z,98006.34
2022-11-29T11:05:19.575Z,98009.22
2022-11-29T11:06:56.982Z,98011.16
2022-11-29T11:08:28.732Z,98009.00
2022-11-29T11:10:00.799Z,98005.28
2022-11-29T11:11:33.723Z,98007.31
2022-11-29T11:13:20.999Z,98009.91
2022-11-29T11:15:12.208Z,98008.66
2022-11-29T11:16:44.193Z,98000.81
2022-11-29T11:18:24.165Z,98003.00
2022-11-29T11:19:58.781Z,97999.03
2022-11-29T11:21:31.385Z,98010.28
2022-11-29T11:23:20.991Z,97997.94
2022-11-29T11:24:59.117Z,98000.13
2022-11-29T11:26:45.115Z,98003.56
2022-11-29T11:28:29.066Z,98000.50
2022-11-29T11:30:02.466Z,98009.38
2022-11-29T11:31:40.515Z,98008.78
2022-11-29T11:33:14.953Z,98008.28
2022-11-29T11:34:58.622Z,98001.69
2022-11-29T11:36:30.190Z,98003.78
2022-11-29T11:38:01.810Z,98009.28
2022-11-29T11:39:33.496Z,98006.38
2022-11-29T11:41:20.311Z,98007.78
2022-11-29T11:42:52.112Z,98011.38
2022-11-29T11:46:21.706Z,98008.44
2022-11-29T11:47:58.837Z,98011.06
2022-11-29T11:49:36.063Z,98008.44
2022-11-29T11:51:21.322Z,98010.91
2022-11-29T11:52:58.103Z,98012.06
2022-11-29T11:54:31.318Z,98010.50
2022-11-29T11:56:05.800Z,98015.03
2022-11-29T11:57:37.523Z,98013.53
2022-11-29T11:59:20.609Z,98011.06
2022-11-29T12:01:07.366Z,98014.50
2022-11-29T12:02:40.833Z,98008.44
2022-11-29T12:04:14.906Z,98015.53
2022-11-29T12:05:49.749Z,98022.00
2022-11-29T12:07:59.713Z,98011.69
2022-11-29T12:09:39.516Z,98015.28
2022-11-29T12:11:15.189Z,98027.75
2022-11-29T12:12:49.036Z,98016.91
2022-11-29T12:14:32.744Z,98022.28
2022-11-29T12:16:13.584Z,98020.50
2022-11-29T12:17:57.421Z,98025.69
2022-11-29T12:19:38.259Z,98022.94
2022-11-29T12:21:17.498Z,98021.53
2022-11-29T12:23:13.373Z,98025.41
2022-11-29T12:24:55.956Z,98032.25
2022-11-29T12:26:57.357Z,98024.84
2022-11-29T12:28:35.273Z,98028.53
2022-11-29T12:30:14.328Z,98035.25
2022-11-29T12:32:07.670Z,98032.50
2022-11-29T12:34:22.086Z,98036.31
2022-11-29T12:36:02.077Z,98040.47
2022-11-29T12:37:33.678Z,98038.00
2022-11-29T12:39:17.513Z,98039.66
2022-11-29T12:41:07.255Z,98034.81
2022-11-29T12:42:54.609Z,98035.91
2022-11-29T12:44:29.147Z,98039.53
2022-11-29T12:46:21.894Z,98037.72
2022-11-29T12:48:02.977Z,98039.34
2022-11-29T12:49:49.335Z,98031.38
2022-11-29T12:51:29.856Z,98041.31
2022-11-29T12:53:27.008Z,98036.47
2022-11-29T12:55:12.997Z,98035.63
2022-11-29T12:57:12.745Z,98040.59
2022-11-29T12:58:47.111Z,98039.22
2022-11-29T13:00:20.547Z,98039.34
2022-11-29T13:02:04.191Z,98044.81
2022-11-29T13:03:56.989Z,98042.38
2022-11-29T13:05:45.245Z,98044.44
2022-11-29T13:07:28.671Z,98042.53
2022-11-29T13:09:00.192Z,98039.25
2022-11-29T13:10:39.140Z,98041.22
2022-11-29T13:12:13.782Z,98044.81
2022-11-29T13:13:45.429Z,98044.13
2022-11-29T13:15:52.261Z,98046.22
2022-11-29T13:17:46.921Z,98040.16
2022-11-29T13:19:40.213Z,98043.56
2022-11-29T13:21:14.355Z,98042.88
2022-11-29T13:22:54.746Z,98040.28
2022-11-29T13:24:45.559Z,98040.97
2022-11-29T13:26:18.580Z,98044.91
2022-11-29T13:28:31.922Z,98041.78
2022-11-29T13:30:04.469Z,98041.25
2022-11-29T13:31:38.998Z,98041.94
2022-11-29T13:33:34.500Z,98048.63
2022-11-29T13:35:22.273Z,98044.81
2022-11-29T13:37:15.286Z,98044.53
2022-11-29T13:39:08.130Z,98046.31
2022-11-29T13:41:06.743Z,98045.19
2022-11-29T13:42:57.987Z,98042.84
2022-11-29T13:45:03.529Z,98049.13
2022-11-29T13:46:54.675Z,98045.38
2022-11-29T13:48:29.039Z,98055.16
2022-11-29T13:50:03.664Z,98049.78
2022-11-29T13:51:35.316Z,98049.78
2022-11-29T13:53:16.688Z,98056.78
2022-11-29T13:54:48.264Z,98051.88
2022-11-29T13:56:47.806Z,98054.19
2022-11-29T13:58:28.620Z,98054.84
2022-11-29T14:00:00.278Z,98052.56
2022-11-29T14:01:44.321Z,98055.16
2022-11-29T14:03:26.035Z,98050.75
2022-11-29T14:04:57.873Z,98059.94
2022-11-29T14:06:35.920Z,98059.94
2022-11-29T14:08:54.675Z,98062.69
2022-11-29T14:10:29.090Z,98061.03
2022-11-29T14:12:19.639Z,98058.16
2022-11-29T14:14:03.269Z,98062.09
2022-11-29T14:15:34.937Z,98061.69
2022-11-29T14:17:45.114Z,98060.84
2022-11-29T14:19:33.494Z,98060.28
2022-11-29T14:21:05.631Z,98066.31
2022-11-29T14:23:06.358Z,98064.66
2022-11-29T14:24:40.022Z,98063.56
2022-11-29T14:26:11.569Z,98063.69
2022-11-29T14:27:54.873Z,98066.31
2022-11-29T14:29:49.057Z,98068.78
2022-11-29T14:31:51.581Z,98065.75
2022-11-29T14:33:37.971Z,98068.81
2022-11-29T14:35:12.789Z,98068.28
2022-11-29T14:36:58.975Z,98069.28
2022-11-29T14:39:07.699Z,98073.66
2022-11-29T14:40:42.044Z,98075.44
2022-11-29T14:42:18.487Z,98068.72
2022-11-29T14:43:50.785Z,98078.34
2022-11-29T14:45:34.322Z,98073.56
2022-11-29T14:47:49.156Z,98079.75
2022-11-29T14:49:26.020Z,98077.13
2022-11-29T14:51:18.853Z,98085.22
2022-11-29T14:52:51.873Z,98088.16
2022-11-29T14:54:23.736Z,98084.00
2022-11-29T14:56:30.721Z,98090.59
2022-11-29T14:58:03.792Z,98089.09
2022-11-29T14:59:49.418Z,98089.94
2022-11-29T15:01:21.230Z,98093.94
2022-11-29T15:02:58.912Z,98096.81
2022-11-29T15:04:35.854Z,98093.13
2022-11-29T15:06:23.232Z,98095.16
2022-11-29T15:08:29.679Z,98092.44
2022-11-29T15:10:05.024Z,98097.63
2022-11-29T15:11:50.212Z,98102.03
2022-11-29T15:13:32.874Z,98099.03
2022-11-29T15:15:09.624Z,98096.72
2022-11-29T15:16:59.399Z,98099.19
2022-11-29T15:18:54.121Z,98101.91
2022-11-29T15:21:04.189Z,98099.19
2022-11-29T15:22:38.816Z,98105.47
2022-11-29T15:24:16.452Z,98101.09
2022-11-29T15:25:51.228Z,98104.00
2022-11-29T15:27:23.002Z,98101.66
2022-11-29T15:29:12.731Z,98102.63
2022-11-29T15:30:44.398Z,98108.53
2022-11-29T15:32:32.550Z,98113.06
2022-11-29T15:34:20.275Z,98105.53
2022-11-29T15:35:54.666Z,98110.59
2022-11-29T15:37:42.718Z,98118.56
2022-11-29T15:39:43.687Z,98114.44
2022-11-29T15:41:19.996Z,98119.91
2022-11-29T15:43:30.395Z,98118.56
2022-11-29T15:45:02.079Z,98125.84
2022-11-29T15:46:35.496Z,98129.53
2022-11-29T15:48:19.069Z,98137.91
2022-11-29T15:49:52.035Z,98135.31
2022-11-29T15:51:23.547Z,98138.72
2022-11-29T15:53:00.474Z,98135.56
2022-11-29T15:54:42.151Z,98133.91
2022-11-29T15:56:13.768Z,98140.94
2022-11-29T15:57:49.578Z,98137.34
2022-11-29T15:59:26.987Z,98138.75
2022-11-29T16:01:01.035Z,98140.81
2022-11-29T16:02:37.084Z,98138.22
2022-11-29T16:04:15.028Z,98142.16
2022-11-29T16:05:52.422Z,98149.97
2022-11-29T16:07:27.268Z,98149.41
2022-11-29T16:09:01.314Z,98149.84
2022-11-29T16:10:43.463Z,98147.50
2022-11-29T16:12:18.613Z,98147.81
2022-11-29T16:14:02.674Z,98153.97
2022-11-29T16:15:39.208Z,98149.28
2022-11-29T16:17:10.975Z,98154.38
2022-11-29T16:18:45.370Z,98151.91
2022-11-29T16:20:17.800Z,98144.09
2022-11-29T16:22:11.516Z,98149.47
2022-11-29T16:23:43.332Z,98146.03
2022-11-29T16:25:17.412Z,98145.88
2022-11-29T16:26:50.791Z,98152.19
2022-11-29T16:28:24.653Z,98149.59
2022-11-29T16:29:56.613Z,98155.59
2022-11-29T16:31:38.553Z,98154.94
2022-11-29T16:33:21.339Z,98156.41
2022-11-29T16:34:54.260Z,98155.47
2022-11-29T16:36:27.058Z,98159.97
2022-11-29T16:38:00.164Z,98169.31
2022-11-29T16:39:33.190Z,98167.28
2022-11-29T16:41:21.149Z,98165.63
2022-11-29T16:43:23.664Z,98168.22
2022-11-29T16:45:43.235Z,98167.97
2022-11-29T16:47:21.812Z,98172.34
2022-11-29T16:48:55.609Z,98172.34
2022-11-29T16:50:32.135Z,98178.66
2022-11-29T16:52:23.793Z,98171.78
2022-11-29T16:53:55.874Z,98166.44
2022-11-29T16:55:27.623Z,98170.00
2022-11-29T16:57:01.972Z,98163.97
2022-11-29T16:58:37.488Z,98166.72
2022-11-29T17:00:14.568Z,98168.66
2022-11-29T17:01:46.388Z,98170.13
2022-11-29T17:03:18.180Z,98167.53
2022-11-29T17:04:51.558Z,98168.66
2022-11-29T17:06:25.104Z,98168.66
2022-11-29T17:07:56.843Z,98174.69
2022-11-29T17:09:31.478Z,98168.22
2022-11-29T17:11:03.105Z,98173.56
2022-11-29T17:12:35.144Z,98176.34
2022-11-29T17:14:08.332Z,98170.44
2022-11-29T17:15:39.965Z,98176.34
2022-11-29T17:17:16.063Z,98175.34
2022-11-29T17:18:48.390Z,98171.91
2022-11-29T17:20:20.192Z,98172.22
2022-11-29T17:21:52.782Z,98166.88
2022-11-29T17:23:24.442Z,98171.78
2022-11-29T17:24:56.048Z,98170.41
2022-11-29T17:26:27.700Z,98170.84
2022-11-29T17:27:59.252Z,98168.22
2022-11-29T17:29:31.002Z,98164.09
2022-11-29T17:31:09.760Z,98171.91
2022-11-29T17:32:41.352Z,98168.38
2022-11-29T17:34:13.255Z,98176.03
2022-11-29T17:35:44.913Z,98170.69
2022-11-29T17:37:16.573Z,98175.78
2022-11-29T17:38:48.406Z,98179.34
2022-11-29T17:40:20.289Z,98174.25
2022-11-29T17:41:51.913Z,98176.03
2022-11-29T17:43:23.518Z,98183.59
2022-11-29T17:44:55.093Z,98182.66
2022-11-29T17:46:34.786Z,98181.00
2022-11-29T17:48:06.611Z,98186.22
2022-11-29T17:49:38.206Z,98182.09
2022-11-29T17:51:22.815Z,98182.09
2022-11-29T17:53:01.454Z,98188.00
2022-11-29T17:54:33.356Z,98186.34
2022-11-29T17:56:13.955Z,98193.34
2022-11-29T17:57:45.559Z,98188.94
2022-11-29T17:59:17.555Z,98191.69
2022-11-29T18:00:49.197Z,98189.38
2022-11-29T18:02:20.874Z,98187.97
2022-11-29T18:03:54.637Z,98191.28
2022-11-29T18:05:34.200Z,98194.84
2022-11-29T18:07:06.234Z,98199.66
2022-11-29T18:08:39.324Z,98202.25
2022-11-29T18:10:11.671Z,98197.19
2022-11-29T18:11:48.697Z,98205.81
2022-11-29T18:13:21.203Z,98204.72
2022-11-29T18:14:53.222Z,98204.88
2022-11-29T18:16:28.104Z,98201.31
2022-11-29T18:17:59.792Z,98208.31
2022-11-29T18:19:31.585Z,98210.09
2022-11-29T18:21:05.406Z,98204.88
2022-11-29T18:22:37.168Z,98209.13
2022-11-29T18:24:09.813Z,98209.78
2022-11-29T18:25:41.408Z,98217.34
2022-11-29T18:27:13.178Z,98213.22
2022-11-29T18:28:45.370Z,98215.00
2022-11-29T18:30:17.135Z,98215.13
2022-11-29T18:31:48.831Z,98215.28
2022-11-29T18:33:20.926Z,98224.19
2022-11-29T18:34:52.577Z,98224.19
2022-11-29T18:36:28.830Z,98222.41
2022-11-29T18:38:15.154Z,98224.06
2022-11-29T18:39:47.336Z,98228.72
2022-11-29T18:41:21.419Z,98231.06
2022-11-29T18:42:53.083Z,98235.56
2022-11-29T18:44:29.388Z,98233.09
2022-11-29T18:46:11.380Z,98234.88
2022-11-29T18:47:43.005Z,98234.88
2022-11-29T18:49:16.990Z,98230.78
2022-11-29T18:50:48.804Z,98227.22
2022-11-29T18:52:20.380Z,98231.31
2022-11-29T18:53:52.082Z,98233.25
2022-11-29T18:55:24.104Z,98225.56
2022-11-29T18:56:55.668Z,98231.03
2022-11-29T18:58:27.320Z,98234.47
2022-11-29T18:59:59.011Z,98239.44
2022-11-29T19:01:34.775Z,98228.19
2022-11-29T19:03:06.537Z,98242.97
2022-11-29T19:04:38.266Z,98235.72
2022-11-29T19:06:12.832Z,98224.47
2022-11-29T19:07:44.621Z,98233.66
2022-11-29T19:09:19.786Z,98232.00
2022-11-29T19:10:51.530Z,98232.16
2022-11-29T19:12:23.161Z,98238.84
2022-11-29T19:13:57.799Z,98232.81
2022-11-29T19:15:29.441Z,98235.44
2022-11-29T19:17:01.032Z,98229.66
2022-11-29T19:18:32.768Z,98234.34
2022-11-29T19:20:04.954Z,98227.91
2022-11-29T19:21:39.211Z,98233.13
2022-11-29T19:23:11.221Z,98228.16
2022-11-29T19:24:43.153Z,98226.50
2022-11-29T19:26:15.535Z,98229.69
2022-11-29T19:27:47.547Z,98229.56
2022-11-29T19:29:20.309Z,98234.19
2022-11-29T19:30:55.772Z,98228.03
2022-11-29T19:32:27.409Z,98236.94
2022-11-29T19:33:59.084Z,98233.91
2022-11-29T19:35:30.919Z,98231.56
2022-11-29T19:37:02.561Z,98230.63
2022-11-29T19:38:38.588Z,98234.63
2022-11-29T19:40:10.204Z,98233.91
2022-11-29T19:41:44.487Z,98236.94